sensor_id;sensor_type;location;lat;lon;timestamp;pressure;altitude;pressure_sealevel;temperature;humidity
21547;BME280;41275;51.912;4.388;2023-05-20T00:05:03;102512.50;;;20.81;40.74
21547;BME280;41275;51.912;4.388;2023-05-20T00:10:24;102514.03;;;20.72;40.47
21547;BME280;41275;51.912;4.388;2023-05-20T00:15:45;102524.13;;;20.59;40.87
21547;BME280;41275;51.912;4.388;2023-05-20T00:21:06;102521.72;;;20.63;40.57
21547;BME280;41275;51.912;4.388;2023-05-20T00:26:28;102521.53;;;20.48;40.49
21547;BME280;41275;51.912;4.388;2023-05-20T00:31:49;102518.22;;;20.41;40.54
21547;BME280;41275;51.912;4.388;2023-05-20T00:37:10;102516.16;;;20.48;40.20
21547;BME280;41275;51.912;4.388;2023-05-20T00:42:31;102520.16;;;20.45;40.16
21547;BME280;41275;51.912;4.388;2023-05-20T00:47:53;102514.03;;;20.28;39.96
21547;BME280;41275;51.912;4.388;2023-05-20T00:53:17;102501.59;;;20.22;39.97
21547;BME280;41275;51.912;4.388;2023-05-20T00:58:39;102499.34;;;20.14;40.00
21547;BME280;41275;51.912;4.388;2023-05-20T01:04:01;102497.56;;;20.02;40.28
21547;BME280;41275;51.912;4.388;2023-05-20T01:09:23;102486.97;;;20.13;39.97
21547;BME280;41275;51.912;4.388;2023-05-20T01:14:50;102488.28;;;20.10;40.11
21547;BME280;41275;51.912;4.388;2023-05-20T01:20:16;102487.25;;;19.94;40.04
21547;BME280;41275;51.912;4.388;2023-05-20T01:25:38;102491.44;;;19.85;40.32
21547;BME280;41275;51.912;4.388;2023-05-20T01:31:01;102484.56;;;19.94;40.18
21547;BME280;41275;51.912;4.388;2023-05-20T01:36:24;102484.44;;;19.84;40.50
21547;BME280;41275;51.912;4.388;2023-05-20T01:41:50;102482.63;;;19.90;40.37
21547;BME280;41275;51.912;4.388;2023-05-20T01:47:12;102471.81;;;19.84;40.40
21547;BME280;41275;51.912;4.388;2023-05-20T01:52:33;102474.63;;;19.95;40.41
21547;BME280;41275;51.912;4.388;2023-05-20T01:57:54;102465.75;;;19.94;40.26
21547;BME280;41275;51.912;4.388;2023-05-20T02:03:15;102470.38;;;19.77;40.48
21547;BME280;41275;51.912;4.388;2023-05-20T02:08:37;102464.28;;;19.65;40.50
21547;BME280;41275;51.912;4.388;2023-05-20T02:13:58;102465.47;;;19.57;41.10
21547;BME280;41275;51.912;4.388;2023-05-20T02:19:19;102463.16;;;19.44;41.13
21547;BME280;41275;51.912;4.388;2023-05-20T02:24:43;102464.97;;;19.38;41.53
21547;BME280;41275;51.912;4.388;2023-05-20T02:30:05;102459.00;;;19.36;41.96
21547;BME280;41275;51.912;4.388;2023-05-20T02:35:26;102460.72;;;19.42;41.71
21547;BME280;41275;51.912;4.388;2023-05-20T02:40:48;102458.69;;;19.49;41.69
21547;BME280;41275;51.912;4.388;2023-05-20T02:46:11;102448.69;;;19.61;41.76
21547;BME280;41275;51.912;4.388;2023-05-20T02:51:33;102456.22;;;19.65;41.68
21547;BME280;41275;51.912;4.388;2023-05-20T02:56:54;102450.94;;;19.70;41.86
21547;BME280;41275;51.912;4.388;2023-05-20T03:02:15;102455.69;;;19.84;41.48
21547;BME280;41275;51.912;4.388;2023-05-20T03:07:36;102451.31;;;19.78;41.45
21547;BME280;41275;51.912;4.388;2023-05-20T03:12:58;102451.50;;;19.72;41.42
21547;BME280;41275;51.912;4.388;2023-05-20T03:18:19;102451.75;;;19.70;41.62
21547;BME280;41275;51.912;4.388;2023-05-20T03:23:40;102447.63;;;19.63;41.67
21547;BME280;41275;51.912;4.388;2023-05-20T03:29:02;102453.59;;;19.53;41.97
21547;BME280;41275;51.912;4.388;2023-05-20T03:34:23;102453.81;;;19.46;41.82
21547;BME280;41275;51.912;4.388;2023-05-20T03:39:44;102452.56;;;19.37;42.23
21547;BME280;41275;51.912;4.388;2023-05-20T03:45:06;102446.63;;;19.52;41.94
21547;BME280;41275;51.912;4.388;2023-05-20T03:50:27;102439.88;;;19.32;42.11
21547;BME280;41275;51.912;4.388;2023-05-20T03:55:48;102436.25;;;19.22;42.16
21547;BME280;41275;51.912;4.388;2023-05-20T04:01:09;102438.94;;;19.22;42.41
21547;BME280;41275;51.912;4.388;2023-05-20T04:06:34;102443.00;;;19.07;42.79
21547;BME280;41275;51.912;4.388;2023-05-20T04:11:55;102438.19;;;19.09;42.62
21547;BME280;41275;51.912;4.388;2023-05-20T04:17:17;102436.06;;;19.28;42.92
21547;BME280;41275;51.912;4.388;2023-05-20T04:22:38;102442.69;;;19.59;42.52
21547;BME280;41275;51.912;4.388;2023-05-20T04:27:59;102445.16;;;19.61;42.15
21547;BME280;41275;51.912;4.388;2023-05-20T04:33:20;102441.53;;;19.89;42.04
21547;BME280;41275;51.912;4.388;2023-05-20T04:38:42;102448.34;;;19.97;41.50
21547;BME280;41275;51.912;4.388;2023-05-20T04:44:04;102442.88;;;19.92;41.66
21547;BME280;41275;51.912;4.388;2023-05-20T04:49:26;102439.34;;;19.86;41.52
21547;BME280;41275;51.912;4.388;2023-05-20T04:54:49;102451.00;;;19.75;41.74
21547;BME280;41275;51.912;4.388;2023-05-20T05:00:11;102438.13;;;19.60;41.96
21547;BME280;41275;51.912;4.388;2023-05-20T05:05:36;102433.84;;;19.59;41.95
21547;BME280;41275;51.912;4.388;2023-05-20T05:10:58;102440.31;;;19.80;42.02
21547;BME280;41275;51.912;4.388;2023-05-20T05:16:19;102439.28;;;19.81;41.98
21547;BME280;41275;51.912;4.388;2023-05-20T05:21:41;102440.34;;;20.02;41.78
21547;BME280;41275;51.912;4.388;2023-05-20T05:27:02;102429.06;;;20.27;41.51
21547;BME280;41275;51.912;4.388;2023-05-20T05:32:24;102431.28;;;20.57;40.97
21547;BME280;41275;51.912;4.388;2023-05-20T05:37:47;102437.28;;;20.64;40.90
21547;BME280;41275;51.912;4.388;2023-05-20T05:43:08;102428.03;;;20.55;40.80
21547;BME280;41275;51.912;4.388;2023-05-20T05:48:29;102420.03;;;20.60;40.82
21547;BME280;41275;51.912;4.388;2023-05-20T05:53:51;102420.63;;;20.67;40.71
21547;BME280;41275;51.912;4.388;2023-05-20T05:59:12;102423.31;;;20.67;40.61
21547;BME280;41275;51.912;4.388;2023-05-20T06:04:33;102428.75;;;20.72;40.81
21547;BME280;41275;51.912;4.388;2023-05-20T06:09:54;102427.72;;;21.11;40.28
21547;BME280;41275;51.912;4.388;2023-05-20T06:15:16;102425.53;;;21.45;40.07
21547;BME280;41275;51.912;4.388;2023-05-20T06:20:37;102423.13;;;21.48;39.87
21547;BME280;41275;51.912;4.388;2023-05-20T06:25:59;102412.88;;;21.45;39.71
21547;BME280;41275;51.912;4.388;2023-05-20T06:31:20;102419.44;;;21.65;39.44
21547;BME280;41275;51.912;4.388;2023-05-20T06:36:41;102412.28;;;21.86;39.32
21547;BME280;41275;51.912;4.388;2023-05-20T06:42:02;102414.19;;;21.95;39.01
21547;BME280;41275;51.912;4.388;2023-05-20T06:47:24;102409.13;;;22.09;38.54
21547;BME280;41275;51.912;4.388;2023-05-20T06:52:45;102403.75;;;22.19;38.56
21547;BME280;41275;51.912;4.388;2023-05-20T06:58:06;102400.28;;;22.29;38.57
21547;BME280;41275;51.912;4.388;2023-05-20T07:03:28;102403.53;;;22.46;38.07
21547;BME280;41275;51.912;4.388;2023-05-20T07:08:49;102399.53;;;22.69;37.41
21547;BME280;41275;51.912;4.388;2023-05-20T07:14:10;102394.13;;;22.79;37.23
21547;BME280;41275;51.912;4.388;2023-05-20T07:19:31;102392.78;;;22.97;36.89
21547;BME280;41275;51.912;4.388;2023-05-20T07:24:53;102390.34;;;23.16;36.69
21547;BME280;41275;51.912;4.388;2023-05-20T07:30:14;102385.41;;;23.39;36.21
21547;BME280;41275;51.912;4.388;2023-05-20T07:35:36;102384.25;;;23.60;35.95
21547;BME280;41275;51.912;4.388;2023-05-20T07:40:57;102381.53;;;23.65;36.15
21547;BME280;41275;51.912;4.388;2023-05-20T07:46:18;102376.88;;;23.86;35.70
21547;BME280;41275;51.912;4.388;2023-05-20T07:51:39;102370.03;;;23.99;35.54
21547;BME280;41275;51.912;4.388;2023-05-20T07:57:00;102362.09;;;24.13;35.20
21547;BME280;41275;51.912;4.388;2023-05-20T08:02:22;102363.03;;;24.37;34.90
21547;BME280;41275;51.912;4.388;2023-05-20T08:07:43;102364.38;;;24.45;34.23
21547;BME280;41275;51.912;4.388;2023-05-20T08:13:04;102365.78;;;24.66;34.34
21547;BME280;41275;51.912;4.388;2023-05-20T08:18:25;102365.78;;;24.66;33.62
21547;BME280;41275;51.912;4.388;2023-05-20T08:23:47;102359.16;;;24.83;33.60
21547;BME280;41275;51.912;4.388;2023-05-20T08:29:08;102352.22;;;25.01;33.55
21547;BME280;41275;51.912;4.388;2023-05-20T08:34:30;102350.50;;;25.10;33.17
21547;BME280;41275;51.912;4.388;2023-05-20T08:39:51;102347.06;;;25.28;32.91
21547;BME280;41275;51.912;4.388;2023-05-20T08:45:16;102350.72;;;25.37;32.67
21547;BME280;41275;51.912;4.388;2023-05-20T08:50:37;102344.41;;;25.47;32.45
21547;BME280;41275;51.912;4.388;2023-05-20T08:55:59;102340.38;;;25.63;32.24
21547;BME280;41275;51.912;4.388;2023-05-20T09:01:23;102331.59;;;25.71;31.62
21547;BME280;41275;51.912;4.388;2023-05-20T09:06:45;102323.63;;;25.80;31.25
21547;BME280;41275;51.912;4.388;2023-05-20T09:12:07;102323.63;;;25.80;30.71
21547;BME280;41275;51.912;4.388;2023-05-20T09:17:28;102328.41;;;25.88;30.78
21547;BME280;41275;51.912;4.388;2023-05-20T09:22:51;102323.91;;;25.98;30.49
21547;BME280;41275;51.912;4.388;2023-05-20T09:28:15;102304.06;;;26.02;30.08
21547;BME280;41275;51.912;4.388;2023-05-20T09:33:37;102303.06;;;26.31;30.07
21547;BME280;41275;51.912;4.388;2023-05-20T09:39:01;102309.72;;;26.38;29.48
21547;BME280;41275;51.912;4.388;2023-05-20T09:44:23;102305.91;;;26.39;29.24
21547;BME280;41275;51.912;4.388;2023-05-20T09:49:45;102302.56;;;26.75;28.87
21547;BME280;41275;51.912;4.388;2023-05-20T09:55:09;102300.38;;;26.91;28.09
21547;BME280;41275;51.912;4.388;2023-05-20T10:00:30;102298.38;;;26.97;27.56
21547;BME280;41275;51.912;4.388;2023-05-20T10:06:05;102285.81;;;27.14;27.27
21547;BME280;41275;51.912;4.388;2023-05-20T10:17:04;102294.94;;;27.32;25.96
21547;BME280;41275;51.912;4.388;2023-05-20T10:22:29;102272.13;;;27.20;25.65
21547;BME280;41275;51.912;4.388;2023-05-20T10:28:06;102267.50;;;27.56;25.64
21547;BME280;41275;51.912;4.388;2023-05-20T10:33:28;102262.22;;;27.10;26.06
21547;BME280;41275;51.912;4.388;2023-05-20T10:38:54;102247.09;;;27.45;25.73
21547;BME280;41275;51.912;4.388;2023-05-20T10:44:16;102232.09;;;27.48;25.66
21547;BME280;41275;51.912;4.388;2023-05-20T10:49:43;102241.97;;;27.80;25.36
21547;BME280;41275;51.912;4.388;2023-05-20T10:55:06;102230.72;;;27.95;24.68
21547;BME280;41275;51.912;4.388;2023-05-20T11:00:27;102234.72;;;27.98;24.67
21547;BME280;41275;51.912;4.388;2023-05-20T11:05:49;102229.03;;;28.08;24.51
21547;BME280;41275;51.912;4.388;2023-05-20T11:11:12;102213.31;;;28.36;24.26
21547;BME280;41275;51.912;4.388;2023-05-20T11:16:33;102218.72;;;28.27;24.23
21547;BME280;41275;51.912;4.388;2023-05-20T11:21:54;102209.94;;;28.30;23.96
21547;BME280;41275;51.912;4.388;2023-05-20T11:27:15;102205.72;;;28.24;24.16
21547;BME280;41275;51.912;4.388;2023-05-20T11:32:37;102210.13;;;28.34;25.27
21547;BME280;41275;51.912;4.388;2023-05-20T11:38:04;102216.38;;;28.34;25.29
21547;BME280;41275;51.912;4.388;2023-05-20T11:43:26;102207.03;;;28.58;25.22
21547;BME280;41275;51.912;4.388;2023-05-20T11:48:52;102186.34;;;28.57;25.35
21547;BME280;41275;51.912;4.388;2023-05-20T11:54:14;102184.81;;;28.73;24.90
21547;BME280;41275;51.912;4.388;2023-05-20T11:59:35;102177.13;;;28.75;25.01
21547;BME280;41275;51.912;4.388;2023-05-20T12:04:56;102170.50;;;28.50;25.01
21547;BME280;41275;51.912;4.388;2023-05-20T12:10:18;102162.25;;;28.90;24.49
21547;BME280;41275;51.912;4.388;2023-05-20T12:15:42;102166.00;;;29.20;24.78
21547;BME280;41275;51.912;4.388;2023-05-20T12:21:03;102171.88;;;29.74;23.76
21547;BME280;41275;51.912;4.388;2023-05-20T12:26:26;102167.50;;;30.46;23.00
21547;BME280;41275;51.912;4.388;2023-05-20T12:31:47;102172.41;;;30.62;23.00
21547;BME280;41275;51.912;4.388;2023-05-20T12:37:08;102161.72;;;31.40;22.48
21547;BME280;41275;51.912;4.388;2023-05-20T12:42:29;102159.50;;;31.88;21.31
21547;BME280;41275;51.912;4.388;2023-05-20T12:47:51;102149.44;;;30.84;22.23
21547;BME280;41275;51.912;4.388;2023-05-20T12:53:12;102156.50;;;30.55;22.73
21547;BME280;41275;51.912;4.388;2023-05-20T12:58:33;102153.72;;;31.14;22.00
21547;BME280;41275;51.912;4.388;2023-05-20T13:03:54;102141.47;;;33.13;20.35
21547;BME280;41275;51.912;4.388;2023-05-20T13:09:16;102124.16;;;32.96;20.50
21547;BME280;41275;51.912;4.388;2023-05-20T13:14:37;102133.28;;;32.36;21.19
21547;BME280;41275;51.912;4.388;2023-05-20T13:19:58;102121.88;;;33.70;19.86
21547;BME280;41275;51.912;4.388;2023-05-20T13:25:19;102130.22;;;32.90;20.77
21547;BME280;41275;51.912;4.388;2023-05-20T13:30:40;102134.22;;;31.82;21.21
21547;BME280;41275;51.912;4.388;2023-05-20T13:36:02;102124.06;;;32.81;20.80
21547;BME280;41275;51.912;4.388;2023-05-20T13:41:23;102113.41;;;34.78;18.63
21547;BME280;41275;51.912;4.388;2023-05-20T13:46:47;102113.28;;;34.35;18.63
21547;BME280;41275;51.912;4.388;2023-05-20T13:52:08;102109.72;;;33.56;19.22
21547;BME280;41275;51.912;4.388;2023-05-20T13:57:29;102106.50;;;34.49;18.81
21547;BME280;41275;51.912;4.388;2023-05-20T14:02:51;102096.88;;;34.58;18.39
21547;BME280;41275;51.912;4.388;2023-05-20T14:08:13;102087.75;;;34.19;18.38
21547;BME280;41275;51.912;4.388;2023-05-20T14:13:34;102083.44;;;33.55;19.42
21547;BME280;41275;51.912;4.388;2023-05-20T14:18:55;102075.78;;;32.11;20.53
21547;BME280;41275;51.912;4.388;2023-05-20T14:24:17;102064.66;;;31.71;20.80
21547;BME280;41275;51.912;4.388;2023-05-20T14:29:38;102060.44;;;31.61;21.44
21547;BME280;41275;51.912;4.388;2023-05-20T14:34:59;102068.25;;;30.84;21.82
21547;BME280;41275;51.912;4.388;2023-05-20T14:40:21;102058.47;;;30.32;22.54
21547;BME280;41275;51.912;4.388;2023-05-20T14:45:43;102045.06;;;33.27;20.57
21547;BME280;41275;51.912;4.388;2023-05-20T14:51:06;102040.78;;;33.73;19.78
21547;BME280;41275;51.912;4.388;2023-05-20T14:56:27;102042.31;;;31.69;21.16
21547;BME280;41275;51.912;4.388;2023-05-20T15:01:48;102037.81;;;32.50;20.62
21547;BME280;41275;51.912;4.388;2023-05-20T15:07:10;102029.69;;;34.95;18.45
21547;BME280;41275;51.912;4.388;2023-05-20T15:12:31;102018.16;;;36.34;17.67
21547;BME280;41275;51.912;4.388;2023-05-20T15:17:52;102022.09;;;37.93;16.15
21547;BME280;41275;51.912;4.388;2023-05-20T15:23:13;102015.06;;;36.39;16.93
21547;BME280;41275;51.912;4.388;2023-05-20T15:28:37;102026.41;;;33.80;19.17
21547;BME280;41275;51.912;4.388;2023-05-20T15:33:59;102019.66;;;32.86;20.43
21547;BME280;41275;51.912;4.388;2023-05-20T15:39:20;102004.66;;;35.69;17.92
21547;BME280;41275;51.912;4.388;2023-05-20T15:44:42;102007.78;;;34.79;18.74
21547;BME280;41275;51.912;4.388;2023-05-20T15:50:03;102011.34;;;33.42;19.81
21547;BME280;41275;51.912;4.388;2023-05-20T15:55:28;101999.97;;;34.07;19.37
21547;BME280;41275;51.912;4.388;2023-05-20T16:00:49;101992.59;;;35.80;18.10
21547;BME280;41275;51.912;4.388;2023-05-20T16:06:10;101989.00;;;37.00;17.17
21547;BME280;41275;51.912;4.388;2023-05-20T16:11:32;101993.34;;;37.46;16.98
21547;BME280;41275;51.912;4.388;2023-05-20T16:16:53;101987.53;;;36.09;17.57
21547;BME280;41275;51.912;4.388;2023-05-20T16:22:16;101989.72;;;34.42;18.98
21547;BME280;41275;51.912;4.388;2023-05-20T16:27:37;101983.38;;;34.38;19.11
21547;BME280;41275;51.912;4.388;2023-05-20T16:32:58;101979.03;;;33.04;20.05
21547;BME280;41275;51.912;4.388;2023-05-20T16:38:20;101967.78;;;35.50;18.10
21547;BME280;41275;51.912;4.388;2023-05-20T16:43:41;101971.16;;;36.23;17.43
21547;BME280;41275;51.912;4.388;2023-05-20T16:49:02;101975.91;;;35.43;17.66
21547;BME280;41275;51.912;4.388;2023-05-20T16:54:23;101970.09;;;35.25;18.09
21547;BME280;41275;51.912;4.388;2023-05-20T16:59:44;101977.31;;;36.09;17.48
21547;BME280;41275;51.912;4.388;2023-05-20T17:05:06;101980.56;;;36.19;17.79
21547;BME280;41275;51.912;4.388;2023-05-20T17:10:27;101985.53;;;36.73;17.32
21547;BME280;41275;51.912;4.388;2023-05-20T17:15:49;101986.25;;;36.63;17.35
21547;BME280;41275;51.912;4.388;2023-05-20T17:21:10;101990.00;;;36.85;16.98
21547;BME280;41275;51.912;4.388;2023-05-20T17:26:32;101988.34;;;36.77;17.69
21547;BME280;41275;51.912;4.388;2023-05-20T17:31:53;102005.31;;;33.84;19.99
21547;BME280;41275;51.912;4.388;2023-05-20T17:37:15;101994.47;;;31.17;22.74
21547;BME280;41275;51.912;4.388;2023-05-20T17:42:36;101993.00;;;29.94;24.40
21547;BME280;41275;51.912;4.388;2023-05-20T17:47:57;102005.81;;;29.08;25.93
21547;BME280;41275;51.912;4.388;2023-05-20T17:53:18;101998.75;;;28.73;26.60
21547;BME280;41275;51.912;4.388;2023-05-20T17:58:41;102006.28;;;28.41;27.18
21547;BME280;41275;51.912;4.388;2023-05-20T18:04:04;102012.69;;;28.80;27.20
21547;BME280;41275;51.912;4.388;2023-05-20T18:09:26;102016.19;;;29.32;26.47
21547;BME280;41275;51.912;4.388;2023-05-20T18:14:47;102018.00;;;28.50;27.89
21547;BME280;41275;51.912;4.388;2023-05-20T18:20:08;102016.16;;;28.28;28.08
21547;BME280;41275;51.912;4.388;2023-05-20T18:25:29;102016.72;;;29.00;27.81
21547;BME280;41275;51.912;4.388;2023-05-20T18:30:51;102026.13;;;30.22;26.53
21547;BME280;41275;51.912;4.388;2023-05-20T18:36:12;102020.19;;;30.20;26.30
21547;BME280;41275;51.912;4.388;2023-05-20T18:41:33;102013.66;;;29.19;27.11
21547;BME280;41275;51.912;4.388;2023-05-20T18:46:55;102015.53;;;27.74;29.12
21547;BME280;41275;51.912;4.388;2023-05-20T18:52:16;102010.97;;;26.85;30.48
21547;BME280;41275;51.912;4.388;2023-05-20T18:57:37;102020.41;;;26.51;31.33
21547;BME280;41275;51.912;4.388;2023-05-20T19:02:58;102023.16;;;26.24;32.34
21547;BME280;41275;51.912;4.388;2023-05-20T19:08:20;102009.78;;;25.86;32.79
21547;BME280;41275;51.912;4.388;2023-05-20T19:13:43;102011.94;;;25.56;33.23
21547;BME280;41275;51.912;4.388;2023-05-20T19:19:04;102020.66;;;25.39;33.37
21547;BME280;41275;51.912;4.388;2023-05-20T19:24:25;102023.91;;;25.22;34.10
21547;BME280;41275;51.912;4.388;2023-05-20T19:29:46;102032.84;;;25.04;34.35
21547;BME280;41275;51.912;4.388;2023-05-20T19:35:07;102022.53;;;24.87;35.00
21547;BME280;41275;51.912;4.388;2023-05-20T19:40:29;102033.81;;;24.76;35.01
21547;BME280;41275;51.912;4.388;2023-05-20T19:45:50;102035.06;;;24.64;35.36
21547;BME280;41275;51.912;4.388;2023-05-20T19:51:11;102023.34;;;24.50;35.60
21547;BME280;41275;51.912;4.388;2023-05-20T19:56:33;102028.41;;;24.33;35.91
21547;BME280;41275;51.912;4.388;2023-05-20T20:01:54;102031.00;;;24.19;36.23
21547;BME280;41275;51.912;4.388;2023-05-20T20:07:15;102049.47;;;24.12;36.58
21547;BME280;41275;51.912;4.388;2023-05-20T20:12:36;102048.78;;;24.01;36.93
21547;BME280;41275;51.912;4.388;2023-05-20T20:17:58;102041.06;;;23.89;37.16
21547;BME280;41275;51.912;4.388;2023-05-20T20:23:19;102053.09;;;23.78;37.31
21547;BME280;41275;51.912;4.388;2023-05-20T20:28:40;102046.19;;;23.67;37.69
21547;BME280;41275;51.912;4.388;2023-05-20T20:34:01;102052.41;;;23.62;37.87
21547;BME280;41275;51.912;4.388;2023-05-20T20:39:22;102041.63;;;23.57;37.95
21547;BME280;41275;51.912;4.388;2023-05-20T20:50:08;102040.16;;;23.41;38.43
21547;BME280;41275;51.912;4.388;2023-05-20T20:55:31;102039.91;;;23.37;38.24
21547;BME280;41275;51.912;4.388;2023-05-20T21:00:52;102054.03;;;23.29;38.81
21547;BME280;41275;51.912;4.388;2023-05-20T21:06:14;102048.38;;;23.25;38.60
21547;BME280;41275;51.912;4.388;2023-05-20T21:11:35;102034.16;;;23.15;38.53
21547;BME280;41275;51.912;4.388;2023-05-20T21:16:58;102052.81;;;23.11;39.11
21547;BME280;41275;51.912;4.388;2023-05-20T21:22:20;102053.19;;;22.99;38.94
21547;BME280;41275;51.912;4.388;2023-05-20T21:27:41;102051.06;;;22.91;39.27
21547;BME280;41275;51.912;4.388;2023-05-20T21:33:03;102041.06;;;22.87;39.34
21547;BME280;41275;51.912;4.388;2023-05-20T21:38:24;102040.03;;;22.77;39.50
21547;BME280;41275;51.912;4.388;2023-05-20T21:43:45;102031.69;;;22.74;39.62
21547;BME280;41275;51.912;4.388;2023-05-20T21:49:06;102020.13;;;22.68;39.65
21547;BME280;41275;51.912;4.388;2023-05-20T21:54:27;102020.72;;;22.60;39.90
21547;BME280;41275;51.912;4.388;2023-05-20T21:59:49;102014.03;;;22.52;39.83
21547;BME280;41275;51.912;4.388;2023-05-20T22:05:10;102007.03;;;22.46;40.00
21547;BME280;41275;51.912;4.388;2023-05-20T22:10:31;102016.50;;;22.39;40.25
21547;BME280;41275;51.912;4.388;2023-05-20T22:15:54;101992.00;;;22.30;40.37
21547;BME280;41275;51.912;4.388;2023-05-20T22:21:15;102002.56;;;22.21;40.46
21547;BME280;41275;51.912;4.388;2023-05-20T22:26:36;101992.56;;;22.12;40.54
21547;BME280;41275;51.912;4.388;2023-05-20T22:31:58;101997.44;;;22.04;40.71
21547;BME280;41275;51.912;4.388;2023-05-20T22:37:19;102001.81;;;21.90;41.01
21547;BME280;41275;51.912;4.388;2023-05-20T22:42:41;101999.38;;;21.89;41.02
21547;BME280;41275;51.912;4.388;2023-05-20T22:48:02;101992.66;;;21.81;40.99
21547;BME280;41275;51.912;4.388;2023-05-20T22:53:23;102000.22;;;21.79;40.89
21547;BME280;41275;51.912;4.388;2023-05-20T22:58:44;101990.53;;;21.73;40.93
21547;BME280;41275;51.912;4.388;2023-05-20T23:04:05;101985.16;;;21.68;40.75
21547;BME280;41275;51.912;4.388;2023-05-20T23:09:27;101986.78;;;21.64;41.05
21547;BME280;41275;51.912;4.388;2023-05-20T23:14:48;101983.56;;;21.67;41.06
21547;BME280;41275;51.912;4.388;2023-05-20T23:20:09;101972.22;;;21.65;40.78
21547;BME280;41275;51.912;4.388;2023-05-20T23:25:31;101977.09;;;21.63;40.96
21547;BME280;41275;51.912;4.388;2023-05-20T23:30:52;101967.16;;;21.58;40.96
21547;BME280;41275;51.912;4.388;2023-05-20T23:36:14;101970.13;;;21.51;41.07
21547;BME280;41275;51.912;4.388;2023-05-20T23:41:37;101961.50;;;21.44;41.46
21547;BME280;41275;51.912;4.388;2023-05-20T23:46:58;101954.25;;;21.35;41.72
21547;BME280;41275;51.912;4.388;2023-05-20T23:52:19;101962.56;;;21.28;41.87
21547;BME280;41275;51.912;4.388;2023-05-20T23:57:40;101959.06;;;21.17;42.28
